sensor_id;sensor_type;location;lat;lon;timestamp;temperature;humidity
52181;DHT22;38158;53.338;6.514;2023-02-28T00:00:27;4.90;99.90
52181;DHT22;38158;53.338;6.514;2023-02-28T00:02:53;4.90;99.90
52181;DHT22;38158;53.338;6.514;2023-02-28T00:05:21;4.90;99.90
52181;DHT22;38158;53.338;6.514;2023-02-28T00:07:48;4.90;99.90
52181;DHT22;38158;53.338;6.514;2023-02-28T00:10:19;4.90;99.90
52181;DHT22;38158;53.338;6.514;2023-02-28T00:12:50;4.90;99.90
52181;DHT22;38158;53.338;6.514;2023-02-28T00:15:17;4.90;99.90
52181;DHT22;38158;53.338;6.514;2023-02-28T00:17:43;4.90;99.90
52181;DHT22;38158;53.338;6.514;2023-02-28T00:20:10;4.90;99.90
52181;DHT22;38158;53.338;6.514;2023-02-28T00:22:41;4.90;99.90
52181;DHT22;38158;53.338;6.514;2023-02-28T00:25:09;4.90;99.90
52181;DHT22;38158;53.338;6.514;2023-02-28T00:27:36;4.80;99.90
52181;DHT22;38158;53.338;6.514;2023-02-28T00:30:03;4.90;99.90
52181;DHT22;38158;53.338;6.514;2023-02-28T00:32:29;4.90;99.90
52181;DHT22;38158;53.338;6.514;2023-02-28T00:34:55;4.80;99.90
52181;DHT22;38158;53.338;6.514;2023-02-28T00:37:21;4.80;99.90
52181;DHT22;38158;53.338;6.514;2023-02-28T00:39:47;4.80;99.90
52181;DHT22;38158;53.338;6.514;2023-02-28T00:42:12;4.70;99.90
52181;DHT22;38158;53.338;6.514;2023-02-28T00:44:38;4.70;99.90
52181;DHT22;38158;53.338;6.514;2023-02-28T00:47:04;4.70;99.90
52181;DHT22;38158;53.338;6.514;2023-02-28T00:49:30;4.60;99.90
52181;DHT22;38158;53.338;6.514;2023-02-28T00:51:56;4.60;99.90
52181;DHT22;38158;53.338;6.514;2023-02-28T00:54:22;4.60;99.90
52181;DHT22;38158;53.338;6.514;2023-02-28T00:56:48;4.60;99.90
52181;DHT22;38158;53.338;6.514;2023-02-28T00:59:16;4.60;99.90
52181;DHT22;38158;53.338;6.514;2023-02-28T01:01:43;4.60;99.90
52181;DHT22;38158;53.338;6.514;2023-02-28T01:04:09;4.60;99.90
52181;DHT22;38158;53.338;6.514;2023-02-28T01:06:35;4.60;99.90
52181;DHT22;38158;53.338;6.514;2023-02-28T01:09:02;4.60;99.90
52181;DHT22;38158;53.338;6.514;2023-02-28T01:11:28;4.60;99.90
52181;DHT22;38158;53.338;6.514;2023-02-28T01:13:53;4.60;99.90
52181;DHT22;38158;53.338;6.514;2023-02-28T01:16:19;4.60;99.90
52181;DHT22;38158;53.338;6.514;2023-02-28T01:18:45;4.60;99.90
52181;DHT22;38158;53.338;6.514;2023-02-28T01:21:14;4.70;99.90
52181;DHT22;38158;53.338;6.514;2023-02-28T01:23:41;4.70;99.90
52181;DHT22;38158;53.338;6.514;2023-02-28T01:26:15;4.70;99.90
52181;DHT22;38158;53.338;6.514;2023-02-28T01:28:41;4.70;99.90
52181;DHT22;38158;53.338;6.514;2023-02-28T01:31:08;4.70;99.90
52181;DHT22;38158;53.338;6.514;2023-02-28T01:33:34;4.70;99.90
52181;DHT22;38158;53.338;6.514;2023-02-28T01:36:01;4.60;99.90
52181;DHT22;38158;53.338;6.514;2023-02-28T01:38:27;4.60;99.90
52181;DHT22;38158;53.338;6.514;2023-02-28T01:40:53;4.60;99.90
52181;DHT22;38158;53.338;6.514;2023-02-28T01:43:31;4.70;99.90
52181;DHT22;38158;53.338;6.514;2023-02-28T01:45:58;4.70;99.90
52181;DHT22;38158;53.338;6.514;2023-02-28T01:48:37;4.70;99.90
52181;DHT22;38158;53.338;6.514;2023-02-28T01:51:08;4.70;99.90
52181;DHT22;38158;53.338;6.514;2023-02-28T01:53:42;4.70;99.90
52181;DHT22;38158;53.338;6.514;2023-02-28T01:56:11;4.70;99.90
52181;DHT22;38158;53.338;6.514;2023-02-28T01:58:37;4.70;99.90
52181;DHT22;38158;53.338;6.514;2023-02-28T02:01:04;4.80;99.90
52181;DHT22;38158;53.338;6.514;2023-02-28T02:03:30;4.70;99.90
52181;DHT22;38158;53.338;6.514;2023-02-28T02:05:56;4.60;99.90
52181;DHT22;38158;53.338;6.514;2023-02-28T02:08:26;4.60;99.90
52181;DHT22;38158;53.338;6.514;2023-02-28T02:11:01;4.60;99.90
52181;DHT22;38158;53.338;6.514;2023-02-28T02:22:09;4.40;99.90
52181;DHT22;38158;53.338;6.514;2023-02-28T02:36:17;4.50;99.90
52181;DHT22;38158;53.338;6.514;2023-02-28T02:38:52;4.60;99.90
52181;DHT22;38158;53.338;6.514;2023-02-28T02:44:17;4.70;99.90
52181;DHT22;38158;53.338;6.514;2023-02-28T02:46:45;4.70;99.90
52181;DHT22;38158;53.338;6.514;2023-02-28T02:49:22;4.70;99.90
52181;DHT22;38158;53.338;6.514;2023-02-28T02:51:50;4.70;99.90
52181;DHT22;38158;53.338;6.514;2023-02-28T02:54:27;4.70;99.90
52181;DHT22;38158;53.338;6.514;2023-02-28T02:56:59;4.70;99.90
52181;DHT22;38158;53.338;6.514;2023-02-28T02:59:26;4.80;99.90
52181;DHT22;38158;53.338;6.514;2023-02-28T03:01:56;4.80;99.90
52181;DHT22;38158;53.338;6.514;2023-02-28T03:04:25;4.80;99.90
52181;DHT22;38158;53.338;6.514;2023-02-28T03:06:53;4.80;99.90
52181;DHT22;38158;53.338;6.514;2023-02-28T03:09:24;4.80;99.90
52181;DHT22;38158;53.338;6.514;2023-02-28T03:11:52;5.10;99.90
52181;DHT22;38158;53.338;6.514;2023-02-28T03:20:17;4.90;99.90
52181;DHT22;38158;53.338;6.514;2023-02-28T03:23:19;4.90;99.90
52181;DHT22;38158;53.338;6.514;2023-02-28T03:25:56;4.90;99.90
52181;DHT22;38158;53.338;6.514;2023-02-28T03:28:49;4.90;99.90
52181;DHT22;38158;53.338;6.514;2023-02-28T03:31:20;4.90;99.90
52181;DHT22;38158;53.338;6.514;2023-02-28T03:33:55;4.90;99.90
52181;DHT22;38158;53.338;6.514;2023-02-28T03:36:30;4.90;99.90
52181;DHT22;38158;53.338;6.514;2023-02-28T03:39:03;4.90;99.90
52181;DHT22;38158;53.338;6.514;2023-02-28T03:41:52;4.90;99.90
52181;DHT22;38158;53.338;6.514;2023-02-28T03:44:25;5.00;99.90
52181;DHT22;38158;53.338;6.514;2023-02-28T03:46:58;5.00;99.90
52181;DHT22;38158;53.338;6.514;2023-02-28T03:49:34;5.00;99.90
52181;DHT22;38158;53.338;6.514;2023-02-28T03:52:04;5.00;99.90
52181;DHT22;38158;53.338;6.514;2023-02-28T03:54:34;5.00;99.90
52181;DHT22;38158;53.338;6.514;2023-02-28T03:57:25;5.00;99.90
52181;DHT22;38158;53.338;6.514;2023-02-28T03:59:56;5.00;99.90
52181;DHT22;38158;53.338;6.514;2023-02-28T04:02:24;5.10;99.90
52181;DHT22;38158;53.338;6.514;2023-02-28T04:04:50;5.00;99.90
52181;DHT22;38158;53.338;6.514;2023-02-28T04:07:17;5.00;99.90
52181;DHT22;38158;53.338;6.514;2023-02-28T04:09:43;5.00;99.90
52181;DHT22;38158;53.338;6.514;2023-02-28T04:12:09;5.00;99.90
52181;DHT22;38158;53.338;6.514;2023-02-28T04:14:34;5.10;99.90
52181;DHT22;38158;53.338;6.514;2023-02-28T04:17:00;5.10;99.90
52181;DHT22;38158;53.338;6.514;2023-02-28T04:19:26;5.10;99.90
52181;DHT22;38158;53.338;6.514;2023-02-28T04:21:53;5.10;99.90
52181;DHT22;38158;53.338;6.514;2023-02-28T04:24:24;5.10;99.90
52181;DHT22;38158;53.338;6.514;2023-02-28T04:26:52;5.10;99.90
52181;DHT22;38158;53.338;6.514;2023-02-28T04:29:24;5.10;99.90
52181;DHT22;38158;53.338;6.514;2023-02-28T04:31:51;5.10;99.90
52181;DHT22;38158;53.338;6.514;2023-02-28T04:34:18;5.10;99.90
52181;DHT22;38158;53.338;6.514;2023-02-28T04:36:45;5.10;99.90
52181;DHT22;38158;53.338;6.514;2023-02-28T04:39:11;5.10;99.90
52181;DHT22;38158;53.338;6.514;2023-02-28T04:41:37;5.10;99.90
52181;DHT22;38158;53.338;6.514;2023-02-28T04:44:03;5.00;99.90
52181;DHT22;38158;53.338;6.514;2023-02-28T04:46:29;5.00;99.90
52181;DHT22;38158;53.338;6.514;2023-02-28T04:48:56;4.80;99.90
52181;DHT22;38158;53.338;6.514;2023-02-28T04:51:21;4.70;99.90
52181;DHT22;38158;53.338;6.514;2023-02-28T04:53:47;4.60;99.90
52181;DHT22;38158;53.338;6.514;2023-02-28T04:56:15;4.60;99.90
52181;DHT22;38158;53.338;6.514;2023-02-28T04:58:41;4.50;99.90
52181;DHT22;38158;53.338;6.514;2023-02-28T05:01:20;4.40;99.90
52181;DHT22;38158;53.338;6.514;2023-02-28T05:03:47;4.40;99.90
52181;DHT22;38158;53.338;6.514;2023-02-28T05:06:13;4.20;99.90
52181;DHT22;38158;53.338;6.514;2023-02-28T05:08:39;4.20;99.90
52181;DHT22;38158;53.338;6.514;2023-02-28T05:11:34;4.20;99.90
52181;DHT22;38158;53.338;6.514;2023-02-28T05:14:05;4.10;99.90
52181;DHT22;38158;53.338;6.514;2023-02-28T05:16:32;4.40;99.90
52181;DHT22;38158;53.338;6.514;2023-02-28T05:18:58;4.10;99.90
52181;DHT22;38158;53.338;6.514;2023-02-28T05:24:00;4.00;99.90
52181;DHT22;38158;53.338;6.514;2023-02-28T05:26:27;4.00;99.90
52181;DHT22;38158;53.338;6.514;2023-02-28T05:28:53;4.60;99.90
52181;DHT22;38158;53.338;6.514;2023-02-28T05:31:20;4.00;99.90
52181;DHT22;38158;53.338;6.514;2023-02-28T05:33:45;3.90;99.90
52181;DHT22;38158;53.338;6.514;2023-02-28T05:36:11;3.80;99.90
52181;DHT22;38158;53.338;6.514;2023-02-28T05:38:37;3.80;99.90
52181;DHT22;38158;53.338;6.514;2023-02-28T05:41:07;3.90;99.90
52181;DHT22;38158;53.338;6.514;2023-02-28T05:43:34;3.80;99.90
52181;DHT22;38158;53.338;6.514;2023-02-28T05:46:05;3.80;99.90
52181;DHT22;38158;53.338;6.514;2023-02-28T05:48:32;3.80;99.90
52181;DHT22;38158;53.338;6.514;2023-02-28T05:50:58;4.00;99.90
52181;DHT22;38158;53.338;6.514;2023-02-28T05:53:24;3.80;99.90
52181;DHT22;38158;53.338;6.514;2023-02-28T05:55:50;3.70;99.90
52181;DHT22;38158;53.338;6.514;2023-02-28T05:58:15;3.70;99.90
52181;DHT22;38158;53.338;6.514;2023-02-28T06:00:41;3.80;99.90
52181;DHT22;38158;53.338;6.514;2023-02-28T06:03:07;3.60;99.90
52181;DHT22;38158;53.338;6.514;2023-02-28T06:05:32;3.50;99.90
52181;DHT22;38158;53.338;6.514;2023-02-28T06:07:58;3.50;99.90
52181;DHT22;38158;53.338;6.514;2023-02-28T06:10:24;3.60;99.90
52181;DHT22;38158;53.338;6.514;2023-02-28T06:12:49;3.40;99.90
52181;DHT22;38158;53.338;6.514;2023-02-28T06:15:15;3.40;99.90
52181;DHT22;38158;53.338;6.514;2023-02-28T06:17:43;3.40;99.90
52181;DHT22;38158;53.338;6.514;2023-02-28T06:20:10;3.40;99.90
52181;DHT22;38158;53.338;6.514;2023-02-28T06:22:36;3.40;99.90
52181;DHT22;38158;53.338;6.514;2023-02-28T06:25:03;3.30;99.90
52181;DHT22;38158;53.338;6.514;2023-02-28T06:27:30;3.30;99.90
52181;DHT22;38158;53.338;6.514;2023-02-28T06:29:56;3.20;99.90
52181;DHT22;38158;53.338;6.514;2023-02-28T06:32:22;3.20;99.90
52181;DHT22;38158;53.338;6.514;2023-02-28T06:34:47;3.20;99.90
52181;DHT22;38158;53.338;6.514;2023-02-28T06:37:14;3.20;99.90
52181;DHT22;38158;53.338;6.514;2023-02-28T06:39:40;3.20;99.90
52181;DHT22;38158;53.338;6.514;2023-02-28T06:42:05;3.20;99.90
52181;DHT22;38158;53.338;6.514;2023-02-28T06:44:31;3.20;99.90
52181;DHT22;38158;53.338;6.514;2023-02-28T06:47:01;3.20;99.90
52181;DHT22;38158;53.338;6.514;2023-02-28T06:49:32;3.30;99.90
52181;DHT22;38158;53.338;6.514;2023-02-28T06:51:58;3.20;99.90
52181;DHT22;38158;53.338;6.514;2023-02-28T06:54:23;3.40;99.90
52181;DHT22;38158;53.338;6.514;2023-02-28T06:56:49;3.10;99.90
52181;DHT22;38158;53.338;6.514;2023-02-28T06:59:16;3.10;99.90
52181;DHT22;38158;53.338;6.514;2023-02-28T07:01:42;3.10;99.90
52181;DHT22;38158;53.338;6.514;2023-02-28T07:04:08;3.10;99.90
52181;DHT22;38158;53.338;6.514;2023-02-28T07:06:34;3.10;99.90
52181;DHT22;38158;53.338;6.514;2023-02-28T07:09:00;3.10;99.90
52181;DHT22;38158;53.338;6.514;2023-02-28T07:11:27;3.50;99.90
52181;DHT22;38158;53.338;6.514;2023-02-28T07:13:54;3.10;99.90
52181;DHT22;38158;53.338;6.514;2023-02-28T07:16:21;3.10;99.90
52181;DHT22;38158;53.338;6.514;2023-02-28T07:18:47;3.10;99.90
52181;DHT22;38158;53.338;6.514;2023-02-28T07:21:13;3.10;99.90
52181;DHT22;38158;53.338;6.514;2023-02-28T07:23:39;3.40;99.90
52181;DHT22;38158;53.338;6.514;2023-02-28T07:26:06;3.10;99.90
52181;DHT22;38158;53.338;6.514;2023-02-28T07:28:32;3.30;99.90
52181;DHT22;38158;53.338;6.514;2023-02-28T07:31:04;3.90;99.90
52181;DHT22;38158;53.338;6.514;2023-02-28T07:33:30;3.10;99.90
52181;DHT22;38158;53.338;6.514;2023-02-28T07:36:07;3.10;99.90
52181;DHT22;38158;53.338;6.514;2023-02-28T07:38:36;3.10;99.90
52181;DHT22;38158;53.338;6.514;2023-02-28T07:41:03;3.30;99.90
52181;DHT22;38158;53.338;6.514;2023-02-28T07:43:32;3.00;99.90
52181;DHT22;38158;53.338;6.514;2023-02-28T07:46:10;3.00;99.90
52181;DHT22;38158;53.338;6.514;2023-02-28T07:48:36;3.00;99.90
52181;DHT22;38158;53.338;6.514;2023-02-28T07:51:02;3.00;99.90
52181;DHT22;38158;53.338;6.514;2023-02-28T07:53:29;3.00;99.90
52181;DHT22;38158;53.338;6.514;2023-02-28T07:55:56;3.00;99.90
52181;DHT22;38158;53.338;6.514;2023-02-28T07:58:22;3.00;99.90
52181;DHT22;38158;53.338;6.514;2023-02-28T08:00:47;3.00;99.90
52181;DHT22;38158;53.338;6.514;2023-02-28T08:03:13;3.20;99.90
52181;DHT22;38158;53.338;6.514;2023-02-28T08:05:40;3.00;99.90
52181;DHT22;38158;53.338;6.514;2023-02-28T08:08:06;3.00;99.90
52181;DHT22;38158;53.338;6.514;2023-02-28T08:10:32;3.00;99.90
52181;DHT22;38158;53.338;6.514;2023-02-28T08:12:58;3.10;99.90
52181;DHT22;38158;53.338;6.514;2023-02-28T08:15:24;3.10;99.90
52181;DHT22;38158;53.338;6.514;2023-02-28T08:17:50;3.60;99.90
52181;DHT22;38158;53.338;6.514;2023-02-28T08:20:15;3.10;99.90
52181;DHT22;38158;53.338;6.514;2023-02-28T08:22:42;3.10;99.90
52181;DHT22;38158;53.338;6.514;2023-02-28T08:25:08;3.40;99.90
52181;DHT22;38158;53.338;6.514;2023-02-28T08:27:35;3.20;99.90
52181;DHT22;38158;53.338;6.514;2023-02-28T08:30:02;3.20;99.90
52181;DHT22;38158;53.338;6.514;2023-02-28T08:32:28;3.30;99.90
52181;DHT22;38158;53.338;6.514;2023-02-28T08:34:54;3.30;99.90
52181;DHT22;38158;53.338;6.514;2023-02-28T08:37:19;3.40;99.90
52181;DHT22;38158;53.338;6.514;2023-02-28T08:39:45;3.40;99.90
52181;DHT22;38158;53.338;6.514;2023-02-28T08:42:11;3.50;99.90
52181;DHT22;38158;53.338;6.514;2023-02-28T08:44:37;3.50;99.90
52181;DHT22;38158;53.338;6.514;2023-02-28T08:47:03;3.80;99.90
52181;DHT22;38158;53.338;6.514;2023-02-28T08:49:29;3.70;99.90
52181;DHT22;38158;53.338;6.514;2023-02-28T08:51:54;3.70;99.90
52181;DHT22;38158;53.338;6.514;2023-02-28T08:54:23;3.90;99.90
52181;DHT22;38158;53.338;6.514;2023-02-28T08:56:49;3.80;99.90
52181;DHT22;38158;53.338;6.514;2023-02-28T08:59:15;3.80;99.90
52181;DHT22;38158;53.338;6.514;2023-02-28T09:01:41;4.60;99.90
52181;DHT22;38158;53.338;6.514;2023-02-28T09:04:09;3.90;99.90
52181;DHT22;38158;53.338;6.514;2023-02-28T09:06:36;4.00;99.90
52181;DHT22;38158;53.338;6.514;2023-02-28T09:09:01;3.90;99.90
52181;DHT22;38158;53.338;6.514;2023-02-28T09:11:29;3.90;99.90
52181;DHT22;38158;53.338;6.514;2023-02-28T09:13:55;4.00;99.90
52181;DHT22;38158;53.338;6.514;2023-02-28T09:16:21;4.00;99.90
52181;DHT22;38158;53.338;6.514;2023-02-28T09:18:47;4.10;99.90
52181;DHT22;38158;53.338;6.514;2023-02-28T09:21:16;4.20;99.90
52181;DHT22;38158;53.338;6.514;2023-02-28T09:23:46;4.20;99.90
52181;DHT22;38158;53.338;6.514;2023-02-28T09:26:17;4.30;99.90
52181;DHT22;38158;53.338;6.514;2023-02-28T09:28:43;4.40;99.90
52181;DHT22;38158;53.338;6.514;2023-02-28T09:31:19;4.50;99.90
52181;DHT22;38158;53.338;6.514;2023-02-28T09:33:49;4.60;99.90
52181;DHT22;38158;53.338;6.514;2023-02-28T09:36:15;4.60;99.90
52181;DHT22;38158;53.338;6.514;2023-02-28T09:38:41;4.70;99.90
52181;DHT22;38158;53.338;6.514;2023-02-28T09:41:16;4.70;99.90
52181;DHT22;38158;53.338;6.514;2023-02-28T09:44:09;4.80;99.90
52181;DHT22;38158;53.338;6.514;2023-02-28T09:46:40;4.80;99.90
52181;DHT22;38158;53.338;6.514;2023-02-28T09:49:14;4.70;99.90
52181;DHT22;38158;53.338;6.514;2023-02-28T09:51:56;4.70;99.90
52181;DHT22;38158;53.338;6.514;2023-02-28T09:54:27;4.80;99.90
52181;DHT22;38158;53.338;6.514;2023-02-28T09:57:13;4.90;99.90
52181;DHT22;38158;53.338;6.514;2023-02-28T10:02:43;5.20;99.90
52181;DHT22;38158;53.338;6.514;2023-02-28T10:05:16;5.30;99.90
52181;DHT22;38158;53.338;6.514;2023-02-28T10:10:49;5.30;99.90
52181;DHT22;38158;53.338;6.514;2023-02-28T10:16:06;5.30;99.90
52181;DHT22;38158;53.338;6.514;2023-02-28T10:18:47;5.30;99.90
52181;DHT22;38158;53.338;6.514;2023-02-28T10:21:28;5.30;99.90
52181;DHT22;38158;53.338;6.514;2023-02-28T10:24:28;5.20;99.90
52181;DHT22;38158;53.338;6.514;2023-02-28T10:26:59;5.30;99.90
52181;DHT22;38158;53.338;6.514;2023-02-28T10:29:27;5.40;99.90
52181;DHT22;38158;53.338;6.514;2023-02-28T10:31:55;5.50;99.90
52181;DHT22;38158;53.338;6.514;2023-02-28T10:34:21;5.70;99.90
52181;DHT22;38158;53.338;6.514;2023-02-28T10:36:48;5.90;99.90
52181;DHT22;38158;53.338;6.514;2023-02-28T10:39:41;6.00;99.90
52181;DHT22;38158;53.338;6.514;2023-02-28T10:42:21;6.00;99.90
52181;DHT22;38158;53.338;6.514;2023-02-28T10:44:47;6.00;99.90
52181;DHT22;38158;53.338;6.514;2023-02-28T10:47:17;6.10;99.90
52181;DHT22;38158;53.338;6.514;2023-02-28T10:49:49;6.10;99.90
52181;DHT22;38158;53.338;6.514;2023-02-28T10:52:34;6.10;99.90
52181;DHT22;38158;53.338;6.514;2023-02-28T10:55:23;6.20;99.90
52181;DHT22;38158;53.338;6.514;2023-02-28T10:57:50;6.30;99.90
52181;DHT22;38158;53.338;6.514;2023-02-28T11:00:21;6.30;99.90
52181;DHT22;38158;53.338;6.514;2023-02-28T11:02:48;6.40;99.90
52181;DHT22;38158;53.338;6.514;2023-02-28T11:05:24;6.40;99.90
52181;DHT22;38158;53.338;6.514;2023-02-28T11:07:55;6.50;99.90
52181;DHT22;38158;53.338;6.514;2023-02-28T11:10:24;6.50;99.90
52181;DHT22;38158;53.338;6.514;2023-02-28T11:12:55;6.60;99.90
52181;DHT22;38158;53.338;6.514;2023-02-28T11:15:24;6.70;99.90
52181;DHT22;38158;53.338;6.514;2023-02-28T11:18:42;6.70;99.90
52181;DHT22;38158;53.338;6.514;2023-02-28T11:20:42;6.70;99.90
52181;DHT22;38158;53.338;6.514;2023-02-28T11:23:14;6.70;99.90
52181;DHT22;38158;53.338;6.514;2023-02-28T11:25:45;6.70;99.90
52181;DHT22;38158;53.338;6.514;2023-02-28T11:28:36;6.70;99.90
52181;DHT22;38158;53.338;6.514;2023-02-28T11:33:50;6.90;99.90
52181;DHT22;38158;53.338;6.514;2023-02-28T11:36:26;7.00;99.90
52181;DHT22;38158;53.338;6.514;2023-02-28T11:39:12;7.00;99.90
52181;DHT22;38158;53.338;6.514;2023-02-28T11:52:51;7.40;99.90
52181;DHT22;38158;53.338;6.514;2023-02-28T11:55:42;7.30;99.90
52181;DHT22;38158;53.338;6.514;2023-02-28T12:01:18;7.50;99.90
52181;DHT22;38158;53.338;6.514;2023-02-28T12:06:33;7.80;99.90
52181;DHT22;38158;53.338;6.514;2023-02-28T12:14:46;8.00;99.90
52181;DHT22;38158;53.338;6.514;2023-02-28T12:28:10;8.10;99.90
52181;DHT22;38158;53.338;6.514;2023-02-28T12:30:41;8.20;99.90
52181;DHT22;38158;53.338;6.514;2023-02-28T12:33:12;8.20;99.90
52181;DHT22;38158;53.338;6.514;2023-02-28T12:35:56;8.30;99.90
52181;DHT22;38158;53.338;6.514;2023-02-28T12:40:58;8.20;99.90
52181;DHT22;38158;53.338;6.514;2023-02-28T12:43:33;8.20;99.90
52181;DHT22;38158;53.338;6.514;2023-02-28T12:46:02;8.20;99.90
52181;DHT22;38158;53.338;6.514;2023-02-28T12:51:06;8.10;99.90
52181;DHT22;38158;53.338;6.514;2023-02-28T12:58:58;7.70;99.90
52181;DHT22;38158;53.338;6.514;2023-02-28T13:01:47;7.60;99.90
52181;DHT22;38158;53.338;6.514;2023-02-28T13:09:24;7.40;99.90
52181;DHT22;38158;53.338;6.514;2023-02-28T13:11:51;7.40;99.90
52181;DHT22;38158;53.338;6.514;2023-02-28T13:17:20;7.30;99.90
52181;DHT22;38158;53.338;6.514;2023-02-28T13:20:02;7.40;99.90
52181;DHT22;38158;53.338;6.514;2023-02-28T13:22:47;7.60;99.90
52181;DHT22;38158;53.338;6.514;2023-02-28T13:27:49;8.00;99.90
52181;DHT22;38158;53.338;6.514;2023-02-28T13:31:00;8.00;99.90
52181;DHT22;38158;53.338;6.514;2023-02-28T13:38:51;7.90;99.90
52181;DHT22;38158;53.338;6.514;2023-02-28T13:44:05;8.20;99.90
52181;DHT22;38158;53.338;6.514;2023-02-28T13:46:34;8.30;99.90
52181;DHT22;38158;53.338;6.514;2023-02-28T13:51:51;8.40;99.90
52181;DHT22;38158;53.338;6.514;2023-02-28T13:59:49;8.40;99.90
52181;DHT22;38158;53.338;6.514;2023-02-28T14:02:34;8.40;99.90
52181;DHT22;38158;53.338;6.514;2023-02-28T14:05:06;8.40;99.90
52181;DHT22;38158;53.338;6.514;2023-02-28T14:07:48;8.40;99.90
52181;DHT22;38158;53.338;6.514;2023-02-28T14:10:48;8.40;99.90
52181;DHT22;38158;53.338;6.514;2023-02-28T14:13:37;8.50;99.90
52181;DHT22;38158;53.338;6.514;2023-02-28T14:27:17;8.30;99.90
52181;DHT22;38158;53.338;6.514;2023-02-28T14:35:40;7.70;99.90
52181;DHT22;38158;53.338;6.514;2023-02-28T14:38:25;7.60;99.90
52181;DHT22;38158;53.338;6.514;2023-02-28T14:40:57;7.50;99.90
52181;DHT22;38158;53.338;6.514;2023-02-28T14:43:26;7.30;99.90
52181;DHT22;38158;53.338;6.514;2023-02-28T14:45:58;7.30;99.90
52181;DHT22;38158;53.338;6.514;2023-02-28T14:48:24;7.30;99.90
52181;DHT22;38158;53.338;6.514;2023-02-28T14:50:54;7.30;99.90
52181;DHT22;38158;53.338;6.514;2023-02-28T14:53:22;7.30;99.90
52181;DHT22;38158;53.338;6.514;2023-02-28T14:55:50;7.40;99.90
52181;DHT22;38158;53.338;6.514;2023-02-28T15:00:51;7.40;99.90
52181;DHT22;38158;53.338;6.514;2023-02-28T15:05:56;7.40;99.90
52181;DHT22;38158;53.338;6.514;2023-02-28T15:08:22;7.50;99.90
52181;DHT22;38158;53.338;6.514;2023-02-28T15:11:00;7.50;99.90
52181;DHT22;38158;53.338;6.514;2023-02-28T15:13:38;7.50;99.90
52181;DHT22;38158;53.338;6.514;2023-02-28T15:16:12;7.50;99.90
52181;DHT22;38158;53.338;6.514;2023-02-28T15:21:43;7.40;99.90
52181;DHT22;38158;53.338;6.514;2023-02-28T15:24:14;7.30;99.90
52181;DHT22;38158;53.338;6.514;2023-02-28T15:26:43;7.30;99.90
52181;DHT22;38158;53.338;6.514;2023-02-28T15:29:15;7.20;99.90
52181;DHT22;38158;53.338;6.514;2023-02-28T15:31:58;7.10;99.90
52181;DHT22;38158;53.338;6.514;2023-02-28T15:34:39;7.20;99.90
52181;DHT22;38158;53.338;6.514;2023-02-28T15:37:25;7.20;99.90
52181;DHT22;38158;53.338;6.514;2023-02-28T15:39:52;7.20;99.90
52181;DHT22;38158;53.338;6.514;2023-02-28T15:42:20;7.10;99.90
52181;DHT22;38158;53.338;6.514;2023-02-28T15:44:46;7.10;99.90
52181;DHT22;38158;53.338;6.514;2023-02-28T15:47:26;7.10;99.90
52181;DHT22;38158;53.338;6.514;2023-02-28T15:50:00;5.80;99.90
52181;DHT22;38158;53.338;6.514;2023-02-28T15:54:57;7.00;99.90
52181;DHT22;38158;53.338;6.514;2023-02-28T15:57:28;7.00;99.90
52181;DHT22;38158;53.338;6.514;2023-02-28T15:59:57;7.00;99.90
52181;DHT22;38158;53.338;6.514;2023-02-28T16:02:43;6.90;99.90
52181;DHT22;38158;53.338;6.514;2023-02-28T16:07:37;6.90;99.90
52181;DHT22;38158;53.338;6.514;2023-02-28T16:10:04;6.90;99.90
52181;DHT22;38158;53.338;6.514;2023-02-28T16:12:32;6.90;99.90
52181;DHT22;38158;53.338;6.514;2023-02-28T16:15:07;6.80;99.90
52181;DHT22;38158;53.338;6.514;2023-02-28T16:17:35;6.80;99.90
52181;DHT22;38158;53.338;6.514;2023-02-28T16:20:13;6.80;99.90
52181;DHT22;38158;53.338;6.514;2023-02-28T16:22:39;6.80;99.90
52181;DHT22;38158;53.338;6.514;2023-02-28T16:25:15;6.80;99.90
52181;DHT22;38158;53.338;6.514;2023-02-28T16:27:42;6.80;99.90
52181;DHT22;38158;53.338;6.514;2023-02-28T16:30:25;6.80;99.90
52181;DHT22;38158;53.338;6.514;2023-02-28T16:32:53;6.80;99.90
52181;DHT22;38158;53.338;6.514;2023-02-28T16:35:20;6.70;99.90
52181;DHT22;38158;53.338;6.514;2023-02-28T16:37:46;6.70;99.90
52181;DHT22;38158;53.338;6.514;2023-02-28T16:40:18;6.70;99.90
52181;DHT22;38158;53.338;6.514;2023-02-28T16:42:45;6.60;99.90
52181;DHT22;38158;53.338;6.514;2023-02-28T16:45:17;6.40;99.90
52181;DHT22;38158;53.338;6.514;2023-02-28T16:47:45;6.30;99.90
52181;DHT22;38158;53.338;6.514;2023-02-28T16:50:30;6.10;99.90
52181;DHT22;38158;53.338;6.514;2023-02-28T16:52:58;6.00;99.90
52181;DHT22;38158;53.338;6.514;2023-02-28T16:55:24;5.90;99.90
52181;DHT22;38158;53.338;6.514;2023-02-28T16:57:56;5.80;99.90
52181;DHT22;38158;53.338;6.514;2023-02-28T17:00:22;6.00;99.90
52181;DHT22;38158;53.338;6.514;2023-02-28T17:02:48;5.70;99.90
52181;DHT22;38158;53.338;6.514;2023-02-28T17:05:15;5.60;99.90
52181;DHT22;38158;53.338;6.514;2023-02-28T17:07:41;5.50;99.90
52181;DHT22;38158;53.338;6.514;2023-02-28T17:10:20;5.60;99.90
52181;DHT22;38158;53.338;6.514;2023-02-28T17:12:47;5.40;99.90
52181;DHT22;38158;53.338;6.514;2023-02-28T17:15:14;5.30;99.90
52181;DHT22;38158;53.338;6.514;2023-02-28T17:17:41;5.30;99.90
52181;DHT22;38158;53.338;6.514;2023-02-28T17:20:15;5.30;99.90
52181;DHT22;38158;53.338;6.514;2023-02-28T17:22:41;5.20;99.90
52181;DHT22;38158;53.338;6.514;2023-02-28T17:25:08;5.20;99.90
52181;DHT22;38158;53.338;6.514;2023-02-28T17:27:34;5.10;99.90
52181;DHT22;38158;53.338;6.514;2023-02-28T17:30:00;5.00;99.90
52181;DHT22;38158;53.338;6.514;2023-02-28T17:32:26;5.00;99.90
52181;DHT22;38158;53.338;6.514;2023-02-28T17:34:53;4.90;99.90
52181;DHT22;38158;53.338;6.514;2023-02-28T17:37:19;4.90;99.90
52181;DHT22;38158;53.338;6.514;2023-02-28T17:39:44;4.80;99.90
52181;DHT22;38158;53.338;6.514;2023-02-28T17:42:10;4.80;99.90
52181;DHT22;38158;53.338;6.514;2023-02-28T17:44:36;4.80;99.90
52181;DHT22;38158;53.338;6.514;2023-02-28T17:47:03;4.70;99.90
52181;DHT22;38158;53.338;6.514;2023-02-28T17:49:29;4.70;99.90
52181;DHT22;38158;53.338;6.514;2023-02-28T17:51:54;4.60;99.90
52181;DHT22;38158;53.338;6.514;2023-02-28T17:54:20;4.60;99.90
52181;DHT22;38158;53.338;6.514;2023-02-28T17:56:46;4.50;99.90
52181;DHT22;38158;53.338;6.514;2023-02-28T17:59:12;4.50;99.90
52181;DHT22;38158;53.338;6.514;2023-02-28T18:01:38;4.40;99.90
52181;DHT22;38158;53.338;6.514;2023-02-28T18:04:04;4.40;99.90
52181;DHT22;38158;53.338;6.514;2023-02-28T18:06:44;4.40;99.90
52181;DHT22;38158;53.338;6.514;2023-02-28T18:09:14;4.30;99.90
52181;DHT22;38158;53.338;6.514;2023-02-28T18:11:40;4.40;99.90
52181;DHT22;38158;53.338;6.514;2023-02-28T18:14:06;4.20;99.90
52181;DHT22;38158;53.338;6.514;2023-02-28T18:16:32;4.20;99.90
52181;DHT22;38158;53.338;6.514;2023-02-28T18:18:58;4.00;99.90
52181;DHT22;38158;53.338;6.514;2023-02-28T18:21:23;3.90;99.90
52181;DHT22;38158;53.338;6.514;2023-02-28T18:23:49;3.90;99.90
52181;DHT22;38158;53.338;6.514;2023-02-28T18:26:17;4.60;99.90